sensor_id;sensor_type;location;lat;lon;timestamp;P1;durP1;ratioP1;P2;durP2;ratioP2
5085;SDS011;4715;51.660;7.082;2022-12-07T00:01:07;12.87;;;10.30;;
5085;SDS011;4715;51.660;7.082;2022-12-07T00:03:31;14.37;;;8.53;;
5085;SDS011;4715;51.660;7.082;2022-12-07T00:05:57;10.90;;;9.50;;
5085;SDS011;4715;51.660;7.082;2022-12-07T00:08:20;15.97;;;8.97;;
5085;SDS011;4715;51.660;7.082;2022-12-07T00:10:49;11.03;;;8.40;;
5085;SDS011;4715;51.660;7.082;2022-12-07T00:13:12;10.77;;;8.77;;
5085;SDS011;4715;51.660;7.082;2022-12-07T00:15:35;12.07;;;10.63;;
5085;SDS011;4715;51.660;7.082;2022-12-07T00:17:58;9.53;;;8.07;;
5085;SDS011;4715;51.660;7.082;2022-12-07T00:20:20;8.80;;;7.90;;
5085;SDS011;4715;51.660;7.082;2022-12-07T00:22:42;10.50;;;8.10;;
5085;SDS011;4715;51.660;7.082;2022-12-07T00:25:06;12.40;;;9.37;;
5085;SDS011;4715;51.660;7.082;2022-12-07T00:27:28;9.93;;;8.07;;
5085;SDS011;4715;51.660;7.082;2022-12-07T00:29:50;9.47;;;8.10;;
5085;SDS011;4715;51.660;7.082;2022-12-07T00:32:12;10.40;;;8.77;;
5085;SDS011;4715;51.660;7.082;2022-12-07T00:34:36;13.37;;;9.70;;
5085;SDS011;4715;51.660;7.082;2022-12-07T00:36:59;12.40;;;10.43;;
5085;SDS011;4715;51.660;7.082;2022-12-07T00:39:21;12.93;;;9.97;;
5085;SDS011;4715;51.660;7.082;2022-12-07T00:41:48;19.63;;;10.67;;
5085;SDS011;4715;51.660;7.082;2022-12-07T00:44:12;12.90;;;10.77;;
5085;SDS011;4715;51.660;7.082;2022-12-07T00:46:33;11.00;;;9.20;;
5085;SDS011;4715;51.660;7.082;2022-12-07T00:48:56;15.00;;;9.57;;
5085;SDS011;4715;51.660;7.082;2022-12-07T00:51:20;10.27;;;8.20;;
5085;SDS011;4715;51.660;7.082;2022-12-07T00:53:45;10.87;;;9.70;;
5085;SDS011;4715;51.660;7.082;2022-12-07T00:56:09;14.33;;;10.00;;
5085;SDS011;4715;51.660;7.082;2022-12-07T00:58:36;13.00;;;9.90;;
5085;SDS011;4715;51.660;7.082;2022-12-07T01:00:59;18.10;;;12.00;;
5085;SDS011;4715;51.660;7.082;2022-12-07T01:03:21;17.00;;;12.30;;
5085;SDS011;4715;51.660;7.082;2022-12-07T01:05:49;14.53;;;11.53;;
5085;SDS011;4715;51.660;7.082;2022-12-07T01:08:12;14.77;;;12.43;;
5085;SDS011;4715;51.660;7.082;2022-12-07T01:10:35;12.70;;;11.30;;
5085;SDS011;4715;51.660;7.082;2022-12-07T01:12:58;15.43;;;11.53;;
5085;SDS011;4715;51.660;7.082;2022-12-07T01:15:26;16.80;;;12.87;;
5085;SDS011;4715;51.660;7.082;2022-12-07T01:17:48;16.53;;;11.90;;
5085;SDS011;4715;51.660;7.082;2022-12-07T01:20:11;16.27;;;12.83;;
5085;SDS011;4715;51.660;7.082;2022-12-07T01:22:36;34.03;;;13.50;;
5085;SDS011;4715;51.660;7.082;2022-12-07T01:24:59;13.53;;;10.20;;
5085;SDS011;4715;51.660;7.082;2022-12-07T01:27:21;12.47;;;10.43;;
5085;SDS011;4715;51.660;7.082;2022-12-07T01:29:44;14.93;;;9.60;;
5085;SDS011;4715;51.660;7.082;2022-12-07T01:32:08;10.93;;;9.47;;
5085;SDS011;4715;51.660;7.082;2022-12-07T01:34:30;15.07;;;10.60;;
5085;SDS011;4715;51.660;7.082;2022-12-07T01:36:53;16.30;;;10.90;;
5085;SDS011;4715;51.660;7.082;2022-12-07T01:39:15;16.83;;;10.73;;
5085;SDS011;4715;51.660;7.082;2022-12-07T01:41:39;13.37;;;10.77;;
5085;SDS011;4715;51.660;7.082;2022-12-07T01:44:11;13.60;;;10.17;;
5085;SDS011;4715;51.660;7.082;2022-12-07T01:46:35;13.93;;;9.27;;
5085;SDS011;4715;51.660;7.082;2022-12-07T01:48:58;10.40;;;9.33;;
5085;SDS011;4715;51.660;7.082;2022-12-07T01:51:23;9.73;;;8.37;;
5085;SDS011;4715;51.660;7.082;2022-12-07T01:53:45;10.20;;;8.83;;
5085;SDS011;4715;51.660;7.082;2022-12-07T01:56:09;12.37;;;10.70;;
5085;SDS011;4715;51.660;7.082;2022-12-07T01:58:34;13.80;;;10.73;;
5085;SDS011;4715;51.660;7.082;2022-12-07T02:00:57;14.60;;;10.10;;
5085;SDS011;4715;51.660;7.082;2022-12-07T02:03:21;13.80;;;11.83;;
5085;SDS011;4715;51.660;7.082;2022-12-07T02:05:50;11.33;;;9.80;;
5085;SDS011;4715;51.660;7.082;2022-12-07T02:08:13;13.50;;;10.93;;
5085;SDS011;4715;51.660;7.082;2022-12-07T02:10:40;11.23;;;9.73;;
5085;SDS011;4715;51.660;7.082;2022-12-07T02:13:08;13.33;;;9.90;;
5085;SDS011;4715;51.660;7.082;2022-12-07T02:15:35;12.77;;;10.13;;
5085;SDS011;4715;51.660;7.082;2022-12-07T02:18:07;15.67;;;10.10;;
5085;SDS011;4715;51.660;7.082;2022-12-07T02:20:45;12.27;;;9.50;;
5085;SDS011;4715;51.660;7.082;2022-12-07T02:23:30;15.27;;;10.00;;
5085;SDS011;4715;51.660;7.082;2022-12-07T02:29:13;15.77;;;10.13;;
5085;SDS011;4715;51.660;7.082;2022-12-07T02:31:43;10.73;;;8.80;;
5085;SDS011;4715;51.660;7.082;2022-12-07T02:34:19;14.10;;;11.63;;
5085;SDS011;4715;51.660;7.082;2022-12-07T02:36:57;11.00;;;8.90;;
5085;SDS011;4715;51.660;7.082;2022-12-07T02:39:27;12.07;;;10.00;;
5085;SDS011;4715;51.660;7.082;2022-12-07T02:41:53;14.07;;;9.63;;
5085;SDS011;4715;51.660;7.082;2022-12-07T02:44:24;10.20;;;8.67;;
5085;SDS011;4715;51.660;7.082;2022-12-07T02:46:49;13.13;;;10.10;;
5085;SDS011;4715;51.660;7.082;2022-12-07T02:49:14;14.47;;;9.00;;
5085;SDS011;4715;51.660;7.082;2022-12-07T02:51:38;10.90;;;9.77;;
5085;SDS011;4715;51.660;7.082;2022-12-07T02:54:02;12.20;;;9.70;;
5085;SDS011;4715;51.660;7.082;2022-12-07T02:56:25;15.77;;;10.10;;
5085;SDS011;4715;51.660;7.082;2022-12-07T02:58:54;15.53;;;11.07;;
5085;SDS011;4715;51.660;7.082;2022-12-07T03:01:28;14.53;;;10.40;;
5085;SDS011;4715;51.660;7.082;2022-12-07T03:03:58;13.40;;;10.97;;
5085;SDS011;4715;51.660;7.082;2022-12-07T03:06:27;15.70;;;11.77;;
5085;SDS011;4715;51.660;7.082;2022-12-07T03:08:54;11.57;;;10.20;;
5085;SDS011;4715;51.660;7.082;2022-12-07T03:11:23;14.53;;;11.33;;
5085;SDS011;4715;51.660;7.082;2022-12-07T03:13:53;12.73;;;10.87;;
5085;SDS011;4715;51.660;7.082;2022-12-07T03:16:21;16.13;;;11.57;;
5085;SDS011;4715;51.660;7.082;2022-12-07T03:18:48;14.10;;;11.80;;
5085;SDS011;4715;51.660;7.082;2022-12-07T03:21:14;13.03;;;10.70;;
5085;SDS011;4715;51.660;7.082;2022-12-07T03:23:40;13.10;;;10.67;;
5085;SDS011;4715;51.660;7.082;2022-12-07T03:26:04;17.23;;;11.00;;
5085;SDS011;4715;51.660;7.082;2022-12-07T03:28:31;17.43;;;12.27;;
5085;SDS011;4715;51.660;7.082;2022-12-07T03:30:57;16.43;;;11.80;;
5085;SDS011;4715;51.660;7.082;2022-12-07T03:33:24;22.90;;;11.83;;
5085;SDS011;4715;51.660;7.082;2022-12-07T03:35:54;14.90;;;10.20;;
5085;SDS011;4715;51.660;7.082;2022-12-07T03:38:23;17.50;;;11.77;;
5085;SDS011;4715;51.660;7.082;2022-12-07T03:40:49;12.93;;;9.50;;
5085;SDS011;4715;51.660;7.082;2022-12-07T03:43:16;11.63;;;10.20;;
5085;SDS011;4715;51.660;7.082;2022-12-07T03:45:40;16.40;;;11.00;;
5085;SDS011;4715;51.660;7.082;2022-12-07T03:48:05;12.90;;;10.40;;
5085;SDS011;4715;51.660;7.082;2022-12-07T03:50:34;11.63;;;10.43;;
5085;SDS011;4715;51.660;7.082;2022-12-07T03:53:04;11.10;;;9.60;;
5085;SDS011;4715;51.660;7.082;2022-12-07T03:55:31;15.30;;;11.40;;
5085;SDS011;4715;51.660;7.082;2022-12-07T03:57:58;24.33;;;10.90;;
5085;SDS011;4715;51.660;7.082;2022-12-07T04:00:23;17.10;;;10.77;;
5085;SDS011;4715;51.660;7.082;2022-12-07T04:02:45;16.27;;;10.00;;
5085;SDS011;4715;51.660;7.082;2022-12-07T04:05:07;15.77;;;9.77;;
5085;SDS011;4715;51.660;7.082;2022-12-07T04:07:30;9.40;;;8.40;;
5085;SDS011;4715;51.660;7.082;2022-12-07T04:09:53;9.53;;;8.63;;
5085;SDS011;4715;51.660;7.082;2022-12-07T04:12:15;10.30;;;8.47;;
5085;SDS011;4715;51.660;7.082;2022-12-07T04:14:38;12.63;;;9.43;;
5085;SDS011;4715;51.660;7.082;2022-12-07T04:16:59;10.20;;;8.60;;
5085;SDS011;4715;51.660;7.082;2022-12-07T04:19:22;9.70;;;8.00;;
5085;SDS011;4715;51.660;7.082;2022-12-07T04:21:45;10.83;;;8.73;;
5085;SDS011;4715;51.660;7.082;2022-12-07T04:24:08;10.90;;;9.10;;
5085;SDS011;4715;51.660;7.082;2022-12-07T04:26:31;13.57;;;9.87;;
5085;SDS011;4715;51.660;7.082;2022-12-07T04:28:53;12.60;;;9.97;;
5085;SDS011;4715;51.660;7.082;2022-12-07T04:31:15;12.23;;;10.17;;
5085;SDS011;4715;51.660;7.082;2022-12-07T04:33:37;13.60;;;9.97;;
5085;SDS011;4715;51.660;7.082;2022-12-07T04:35:59;10.83;;;9.73;;
5085;SDS011;4715;51.660;7.082;2022-12-07T04:38:20;11.93;;;9.67;;
5085;SDS011;4715;51.660;7.082;2022-12-07T04:40:42;16.10;;;11.20;;
5085;SDS011;4715;51.660;7.082;2022-12-07T04:43:05;12.00;;;10.00;;
5085;SDS011;4715;51.660;7.082;2022-12-07T04:45:27;14.23;;;10.33;;
5085;SDS011;4715;51.660;7.082;2022-12-07T04:47:49;12.47;;;9.80;;
5085;SDS011;4715;51.660;7.082;2022-12-07T04:50:11;12.40;;;9.20;;
5085;SDS011;4715;51.660;7.082;2022-12-07T04:52:33;13.67;;;9.90;;
5085;SDS011;4715;51.660;7.082;2022-12-07T04:54:54;13.47;;;9.73;;
5085;SDS011;4715;51.660;7.082;2022-12-07T04:57:16;11.20;;;9.43;;
5085;SDS011;4715;51.660;7.082;2022-12-07T04:59:39;10.77;;;8.43;;
5085;SDS011;4715;51.660;7.082;2022-12-07T05:02:01;13.03;;;9.87;;
5085;SDS011;4715;51.660;7.082;2022-12-07T05:04:23;17.40;;;10.87;;
5085;SDS011;4715;51.660;7.082;2022-12-07T05:06:45;12.70;;;9.63;;
5085;SDS011;4715;51.660;7.082;2022-12-07T05:09:07;14.83;;;11.67;;
5085;SDS011;4715;51.660;7.082;2022-12-07T05:11:28;15.47;;;11.90;;
5085;SDS011;4715;51.660;7.082;2022-12-07T05:13:59;16.10;;;10.83;;
5085;SDS011;4715;51.660;7.082;2022-12-07T05:16:22;18.30;;;10.57;;
5085;SDS011;4715;51.660;7.082;2022-12-07T05:18:44;13.20;;;11.03;;
5085;SDS011;4715;51.660;7.082;2022-12-07T05:21:06;12.83;;;9.97;;
5085;SDS011;4715;51.660;7.082;2022-12-07T05:23:28;10.50;;;8.57;;
5085;SDS011;4715;51.660;7.082;2022-12-07T05:25:50;11.77;;;9.50;;
5085;SDS011;4715;51.660;7.082;2022-12-07T05:28:13;12.87;;;8.23;;
5085;SDS011;4715;51.660;7.082;2022-12-07T05:30:35;9.90;;;8.50;;
5085;SDS011;4715;51.660;7.082;2022-12-07T05:32:58;10.60;;;8.20;;
5085;SDS011;4715;51.660;7.082;2022-12-07T05:35:20;18.00;;;10.30;;
5085;SDS011;4715;51.660;7.082;2022-12-07T05:37:42;9.10;;;8.10;;
5085;SDS011;4715;51.660;7.082;2022-12-07T05:40:05;10.53;;;8.10;;
5085;SDS011;4715;51.660;7.082;2022-12-07T05:42:27;9.27;;;8.13;;
5085;SDS011;4715;51.660;7.082;2022-12-07T05:44:49;11.47;;;8.50;;
5085;SDS011;4715;51.660;7.082;2022-12-07T05:47:11;10.50;;;8.10;;
5085;SDS011;4715;51.660;7.082;2022-12-07T05:49:34;10.40;;;8.40;;
5085;SDS011;4715;51.660;7.082;2022-12-07T05:51:56;9.07;;;8.17;;
5085;SDS011;4715;51.660;7.082;2022-12-07T05:54:18;10.80;;;8.40;;
5085;SDS011;4715;51.660;7.082;2022-12-07T05:56:40;12.20;;;8.80;;
5085;SDS011;4715;51.660;7.082;2022-12-07T05:59:02;11.47;;;8.40;;
5085;SDS011;4715;51.660;7.082;2022-12-07T06:01:42;12.40;;;10.27;;
5085;SDS011;4715;51.660;7.082;2022-12-07T06:04:04;11.57;;;10.40;;
5085;SDS011;4715;51.660;7.082;2022-12-07T06:06:29;12.00;;;9.77;;
5085;SDS011;4715;51.660;7.082;2022-12-07T06:08:53;12.27;;;10.17;;
5085;SDS011;4715;51.660;7.082;2022-12-07T06:11:15;10.03;;;9.03;;
5085;SDS011;4715;51.660;7.082;2022-12-07T06:13:54;16.60;;;9.50;;
5085;SDS011;4715;51.660;7.082;2022-12-07T06:16:15;11.07;;;9.77;;
5085;SDS011;4715;51.660;7.082;2022-12-07T06:18:37;15.43;;;11.23;;
5085;SDS011;4715;51.660;7.082;2022-12-07T06:20:59;15.50;;;10.20;;
5085;SDS011;4715;51.660;7.082;2022-12-07T06:23:22;13.87;;;9.37;;
5085;SDS011;4715;51.660;7.082;2022-12-07T06:25:45;11.77;;;9.90;;
5085;SDS011;4715;51.660;7.082;2022-12-07T06:28:06;13.30;;;9.27;;
5085;SDS011;4715;51.660;7.082;2022-12-07T06:30:29;12.97;;;10.10;;
5085;SDS011;4715;51.660;7.082;2022-12-07T06:32:50;12.53;;;9.37;;
5085;SDS011;4715;51.660;7.082;2022-12-07T06:35:12;16.40;;;10.70;;
5085;SDS011;4715;51.660;7.082;2022-12-07T06:37:35;11.27;;;10.00;;
5085;SDS011;4715;51.660;7.082;2022-12-07T06:39:58;10.50;;;8.77;;
5085;SDS011;4715;51.660;7.082;2022-12-07T06:42:20;11.73;;;9.47;;
5085;SDS011;4715;51.660;7.082;2022-12-07T06:44:43;9.67;;;8.63;;
5085;SDS011;4715;51.660;7.082;2022-12-07T06:47:07;10.17;;;8.70;;
5085;SDS011;4715;51.660;7.082;2022-12-07T06:49:29;9.90;;;8.60;;
5085;SDS011;4715;51.660;7.082;2022-12-07T06:51:52;12.77;;;9.37;;
5085;SDS011;4715;51.660;7.082;2022-12-07T06:54:14;13.83;;;7.43;;
5085;SDS011;4715;51.660;7.082;2022-12-07T06:56:39;10.90;;;7.87;;
5085;SDS011;4715;51.660;7.082;2022-12-07T06:59:01;11.83;;;9.03;;
5085;SDS011;4715;51.660;7.082;2022-12-07T07:01:25;9.90;;;7.67;;
5085;SDS011;4715;51.660;7.082;2022-12-07T07:03:47;9.27;;;8.23;;
5085;SDS011;4715;51.660;7.082;2022-12-07T07:06:09;12.80;;;8.53;;
5085;SDS011;4715;51.660;7.082;2022-12-07T07:08:31;9.63;;;7.53;;
5085;SDS011;4715;51.660;7.082;2022-12-07T07:10:53;14.43;;;8.30;;
5085;SDS011;4715;51.660;7.082;2022-12-07T07:13:16;14.10;;;8.80;;
5085;SDS011;4715;51.660;7.082;2022-12-07T07:15:38;9.27;;;7.67;;
5085;SDS011;4715;51.660;7.082;2022-12-07T07:18:00;8.37;;;7.57;;
5085;SDS011;4715;51.660;7.082;2022-12-07T07:20:23;10.73;;;7.97;;
5085;SDS011;4715;51.660;7.082;2022-12-07T07:22:45;9.43;;;7.80;;
5085;SDS011;4715;51.660;7.082;2022-12-07T07:25:08;11.70;;;8.50;;
5085;SDS011;4715;51.660;7.082;2022-12-07T07:27:29;11.70;;;7.70;;
5085;SDS011;4715;51.660;7.082;2022-12-07T07:29:53;18.97;;;8.97;;
5085;SDS011;4715;51.660;7.082;2022-12-07T07:32:14;8.63;;;7.23;;
5085;SDS011;4715;51.660;7.082;2022-12-07T07:34:36;16.47;;;7.80;;
5085;SDS011;4715;51.660;7.082;2022-12-07T07:36:58;14.10;;;8.77;;
5085;SDS011;4715;51.660;7.082;2022-12-07T07:39:20;13.50;;;9.07;;
5085;SDS011;4715;51.660;7.082;2022-12-07T07:41:42;10.37;;;8.37;;
5085;SDS011;4715;51.660;7.082;2022-12-07T07:44:04;9.10;;;8.20;;
5085;SDS011;4715;51.660;7.082;2022-12-07T07:46:27;14.50;;;9.97;;
5085;SDS011;4715;51.660;7.082;2022-12-07T07:48:49;12.27;;;10.17;;
5085;SDS011;4715;51.660;7.082;2022-12-07T07:51:11;11.53;;;7.90;;
5085;SDS011;4715;51.660;7.082;2022-12-07T07:53:33;12.27;;;8.40;;
5085;SDS011;4715;51.660;7.082;2022-12-07T07:55:55;9.63;;;8.00;;
5085;SDS011;4715;51.660;7.082;2022-12-07T07:58:16;11.43;;;8.83;;
5085;SDS011;4715;51.660;7.082;2022-12-07T08:00:38;11.27;;;8.57;;
5085;SDS011;4715;51.660;7.082;2022-12-07T08:03:01;9.47;;;7.67;;
5085;SDS011;4715;51.660;7.082;2022-12-07T08:05:25;8.60;;;7.60;;
5085;SDS011;4715;51.660;7.082;2022-12-07T08:07:47;7.50;;;6.80;;
5085;SDS011;4715;51.660;7.082;2022-12-07T08:10:09;10.90;;;7.60;;
5085;SDS011;4715;51.660;7.082;2022-12-07T08:12:35;9.03;;;7.43;;
5085;SDS011;4715;51.660;7.082;2022-12-07T08:14:57;10.30;;;6.60;;
5085;SDS011;4715;51.660;7.082;2022-12-07T08:17:19;8.20;;;6.90;;
5085;SDS011;4715;51.660;7.082;2022-12-07T08:19:42;12.43;;;7.20;;
5085;SDS011;4715;51.660;7.082;2022-12-07T08:22:04;7.03;;;6.33;;
5085;SDS011;4715;51.660;7.082;2022-12-07T08:24:26;12.90;;;7.73;;
5085;SDS011;4715;51.660;7.082;2022-12-07T08:26:48;9.13;;;7.60;;
5085;SDS011;4715;51.660;7.082;2022-12-07T08:29:10;11.20;;;7.00;;
5085;SDS011;4715;51.660;7.082;2022-12-07T08:31:32;12.87;;;7.77;;
5085;SDS011;4715;51.660;7.082;2022-12-07T08:33:54;8.77;;;7.53;;
5085;SDS011;4715;51.660;7.082;2022-12-07T08:36:17;9.10;;;7.47;;
5085;SDS011;4715;51.660;7.082;2022-12-07T08:38:39;8.63;;;7.60;;
5085;SDS011;4715;51.660;7.082;2022-12-07T08:41:02;12.97;;;8.30;;
5085;SDS011;4715;51.660;7.082;2022-12-07T08:43:24;7.97;;;7.10;;
5085;SDS011;4715;51.660;7.082;2022-12-07T08:45:46;12.23;;;7.17;;
5085;SDS011;4715;51.660;7.082;2022-12-07T08:48:09;10.97;;;8.27;;
5085;SDS011;4715;51.660;7.082;2022-12-07T08:50:34;10.43;;;7.77;;
5085;SDS011;4715;51.660;7.082;2022-12-07T08:53:06;11.10;;;7.10;;
5085;SDS011;4715;51.660;7.082;2022-12-07T08:55:37;12.50;;;7.50;;
5085;SDS011;4715;51.660;7.082;2022-12-07T08:57:59;11.93;;;6.23;;
5085;SDS011;4715;51.660;7.082;2022-12-07T09:00:24;13.60;;;7.30;;
5085;SDS011;4715;51.660;7.082;2022-12-07T09:02:49;12.73;;;7.50;;
5085;SDS011;4715;51.660;7.082;2022-12-07T09:05:13;16.33;;;7.43;;
5085;SDS011;4715;51.660;7.082;2022-12-07T09:07:36;12.27;;;7.30;;
5085;SDS011;4715;51.660;7.082;2022-12-07T09:10:06;6.97;;;6.33;;
5085;SDS011;4715;51.660;7.082;2022-12-07T09:12:30;10.70;;;6.03;;
5085;SDS011;4715;51.660;7.082;2022-12-07T09:14:52;12.37;;;7.50;;
5085;SDS011;4715;51.660;7.082;2022-12-07T09:17:14;12.40;;;6.97;;
5085;SDS011;4715;51.660;7.082;2022-12-07T09:19:38;7.57;;;6.70;;
5085;SDS011;4715;51.660;7.082;2022-12-07T09:22:02;9.93;;;6.47;;
5085;SDS011;4715;51.660;7.082;2022-12-07T09:24:25;6.93;;;5.27;;
5085;SDS011;4715;51.660;7.082;2022-12-07T09:26:49;6.93;;;5.80;;
5085;SDS011;4715;51.660;7.082;2022-12-07T09:29:12;9.53;;;6.03;;
5085;SDS011;4715;51.660;7.082;2022-12-07T09:31:36;5.90;;;5.40;;
5085;SDS011;4715;51.660;7.082;2022-12-07T09:33:59;8.93;;;7.07;;
5085;SDS011;4715;51.660;7.082;2022-12-07T09:36:24;8.47;;;6.23;;
5085;SDS011;4715;51.660;7.082;2022-12-07T09:38:47;15.20;;;5.87;;
5085;SDS011;4715;51.660;7.082;2022-12-07T09:41:09;9.23;;;6.23;;
5085;SDS011;4715;51.660;7.082;2022-12-07T09:43:33;8.27;;;5.97;;
5085;SDS011;4715;51.660;7.082;2022-12-07T09:46:02;9.23;;;5.20;;
5085;SDS011;4715;51.660;7.082;2022-12-07T09:48:25;9.80;;;5.77;;
5085;SDS011;4715;51.660;7.082;2022-12-07T09:50:52;7.13;;;5.80;;
5085;SDS011;4715;51.660;7.082;2022-12-07T09:53:23;9.40;;;5.60;;
5085;SDS011;4715;51.660;7.082;2022-12-07T09:55:47;5.00;;;4.60;;
5085;SDS011;4715;51.660;7.082;2022-12-07T09:58:12;7.40;;;5.20;;
5085;SDS011;4715;51.660;7.082;2022-12-07T10:00:43;7.57;;;5.17;;
5085;SDS011;4715;51.660;7.082;2022-12-07T10:03:07;6.53;;;5.70;;
5085;SDS011;4715;51.660;7.082;2022-12-07T10:05:34;5.13;;;4.73;;
5085;SDS011;4715;51.660;7.082;2022-12-07T10:07:58;6.37;;;5.10;;
5085;SDS011;4715;51.660;7.082;2022-12-07T10:10:26;7.70;;;5.80;;
5085;SDS011;4715;51.660;7.082;2022-12-07T10:12:56;4.83;;;4.37;;
5085;SDS011;4715;51.660;7.082;2022-12-07T10:15:32;11.33;;;4.73;;
5085;SDS011;4715;51.660;7.082;2022-12-07T10:18:18;5.23;;;4.00;;
5085;SDS011;4715;51.660;7.082;2022-12-07T10:20:47;9.40;;;4.20;;
5085;SDS011;4715;51.660;7.082;2022-12-07T10:23:23;8.77;;;4.13;;
5085;SDS011;4715;51.660;7.082;2022-12-07T10:25:45;6.63;;;4.87;;
5085;SDS011;4715;51.660;7.082;2022-12-07T10:28:12;11.77;;;4.77;;
5085;SDS011;4715;51.660;7.082;2022-12-07T10:30:45;5.40;;;3.90;;
5085;SDS011;4715;51.660;7.082;2022-12-07T10:33:16;4.40;;;3.53;;
5085;SDS011;4715;51.660;7.082;2022-12-07T10:36:18;5.00;;;4.30;;
5085;SDS011;4715;51.660;7.082;2022-12-07T10:38:44;6.60;;;4.80;;
5085;SDS011;4715;51.660;7.082;2022-12-07T10:41:07;8.10;;;3.43;;
5085;SDS011;4715;51.660;7.082;2022-12-07T10:43:29;6.70;;;3.90;;
5085;SDS011;4715;51.660;7.082;2022-12-07T10:48:45;6.33;;;4.00;;
5085;SDS011;4715;51.660;7.082;2022-12-07T10:51:17;6.70;;;4.43;;
5085;SDS011;4715;51.660;7.082;2022-12-07T10:53:50;8.50;;;4.70;;
5085;SDS011;4715;51.660;7.082;2022-12-07T10:56:31;4.70;;;3.80;;
5085;SDS011;4715;51.660;7.082;2022-12-07T11:02:09;7.57;;;4.23;;
5085;SDS011;4715;51.660;7.082;2022-12-07T11:04:48;5.03;;;3.57;;
5085;SDS011;4715;51.660;7.082;2022-12-07T11:07:18;7.77;;;4.70;;
5085;SDS011;4715;51.660;7.082;2022-12-07T11:09:51;8.70;;;3.67;;
5085;SDS011;4715;51.660;7.082;2022-12-07T11:12:25;4.10;;;3.80;;
5085;SDS011;4715;51.660;7.082;2022-12-07T11:15:00;4.03;;;3.57;;
5085;SDS011;4715;51.660;7.082;2022-12-07T11:17:26;8.73;;;4.07;;
5085;SDS011;4715;51.660;7.082;2022-12-07T11:20:01;4.47;;;4.00;;
5085;SDS011;4715;51.660;7.082;2022-12-07T11:22:36;4.53;;;3.70;;
5085;SDS011;4715;51.660;7.082;2022-12-07T11:25:18;4.70;;;3.73;;
5085;SDS011;4715;51.660;7.082;2022-12-07T11:27:47;8.23;;;4.43;;
5085;SDS011;4715;51.660;7.082;2022-12-07T11:30:19;4.70;;;3.10;;
5085;SDS011;4715;51.660;7.082;2022-12-07T11:32:58;3.87;;;3.30;;
5085;SDS011;4715;51.660;7.082;2022-12-07T11:35:33;4.60;;;2.93;;
5085;SDS011;4715;51.660;7.082;2022-12-07T11:37:59;5.47;;;3.57;;
5085;SDS011;4715;51.660;7.082;2022-12-07T11:40:30;3.27;;;2.93;;
5085;SDS011;4715;51.660;7.082;2022-12-07T11:42:57;3.93;;;2.70;;
5085;SDS011;4715;51.660;7.082;2022-12-07T11:45:23;5.70;;;3.40;;
5085;SDS011;4715;51.660;7.082;2022-12-07T11:47:51;3.30;;;3.00;;
5085;SDS011;4715;51.660;7.082;2022-12-07T11:50:21;5.70;;;3.60;;
5085;SDS011;4715;51.660;7.082;2022-12-07T11:52:49;3.83;;;3.47;;
5085;SDS011;4715;51.660;7.082;2022-12-07T11:55:18;5.63;;;3.70;;
5085;SDS011;4715;51.660;7.082;2022-12-07T11:57:44;4.00;;;3.23;;
5085;SDS011;4715;51.660;7.082;2022-12-07T12:00:14;3.13;;;2.83;;
5085;SDS011;4715;51.660;7.082;2022-12-07T12:02:39;4.67;;;3.57;;
5085;SDS011;4715;51.660;7.082;2022-12-07T12:05:07;3.30;;;3.10;;
5085;SDS011;4715;51.660;7.082;2022-12-07T12:07:36;6.67;;;3.60;;
5085;SDS011;4715;51.660;7.082;2022-12-07T12:10:00;4.27;;;3.40;;
5085;SDS011;4715;51.660;7.082;2022-12-07T12:12:33;8.10;;;3.80;;
5085;SDS011;4715;51.660;7.082;2022-12-07T12:15:20;5.80;;;2.50;;
5085;SDS011;4715;51.660;7.082;2022-12-07T12:20:46;3.00;;;2.80;;
5085;SDS011;4715;51.660;7.082;2022-12-07T12:23:14;2.63;;;2.40;;
5085;SDS011;4715;51.660;7.082;2022-12-07T12:25:40;4.30;;;2.73;;
5085;SDS011;4715;51.660;7.082;2022-12-07T12:28:15;2.30;;;2.20;;
5085;SDS011;4715;51.660;7.082;2022-12-07T12:30:42;6.73;;;2.73;;
5085;SDS011;4715;51.660;7.082;2022-12-07T12:33:05;6.50;;;2.60;;
5085;SDS011;4715;51.660;7.082;2022-12-07T12:35:35;4.20;;;2.20;;
5085;SDS011;4715;51.660;7.082;2022-12-07T12:41:10;9.17;;;3.23;;
5085;SDS011;4715;51.660;7.082;2022-12-07T12:47:01;8.17;;;2.47;;
5085;SDS011;4715;51.660;7.082;2022-12-07T12:55:12;7.90;;;2.20;;
5085;SDS011;4715;51.660;7.082;2022-12-07T12:57:41;4.60;;;2.30;;
5085;SDS011;4715;51.660;7.082;2022-12-07T13:00:15;2.73;;;1.90;;
5085;SDS011;4715;51.660;7.082;2022-12-07T13:02:39;4.43;;;2.30;;
5085;SDS011;4715;51.660;7.082;2022-12-07T13:05:16;4.20;;;2.00;;
5085;SDS011;4715;51.660;7.082;2022-12-07T13:07:49;4.50;;;2.70;;
5085;SDS011;4715;51.660;7.082;2022-12-07T13:10:34;5.47;;;2.57;;
5085;SDS011;4715;51.660;7.082;2022-12-07T13:13:02;5.73;;;2.30;;
5085;SDS011;4715;51.660;7.082;2022-12-07T13:15:35;2.67;;;2.43;;
5085;SDS011;4715;51.660;7.082;2022-12-07T13:18:04;7.27;;;2.07;;
5085;SDS011;4715;51.660;7.082;2022-12-07T13:20:50;2.27;;;2.07;;
5085;SDS011;4715;51.660;7.082;2022-12-07T13:23:22;5.50;;;3.53;;
5085;SDS011;4715;51.660;7.082;2022-12-07T13:25:51;5.37;;;2.70;;
5085;SDS011;4715;51.660;7.082;2022-12-07T13:28:37;1.93;;;1.80;;
5085;SDS011;4715;51.660;7.082;2022-12-07T13:34:02;3.87;;;2.10;;
5085;SDS011;4715;51.660;7.082;2022-12-07T13:36:46;5.93;;;3.00;;
5085;SDS011;4715;51.660;7.082;2022-12-07T13:39:16;6.10;;;2.50;;
5085;SDS011;4715;51.660;7.082;2022-12-07T13:41:41;3.93;;;2.73;;
5085;SDS011;4715;51.660;7.082;2022-12-07T13:44:08;4.93;;;2.70;;
5085;SDS011;4715;51.660;7.082;2022-12-07T13:46:40;3.63;;;2.27;;
5085;SDS011;4715;51.660;7.082;2022-12-07T13:49:15;4.83;;;2.40;;
5085;SDS011;4715;51.660;7.082;2022-12-07T13:51:42;5.97;;;2.70;;
5085;SDS011;4715;51.660;7.082;2022-12-07T13:54:08;7.03;;;2.70;;
5085;SDS011;4715;51.660;7.082;2022-12-07T13:56:33;3.23;;;2.53;;
5085;SDS011;4715;51.660;7.082;2022-12-07T13:58:56;6.60;;;2.90;;
5085;SDS011;4715;51.660;7.082;2022-12-07T14:01:19;4.10;;;2.23;;
5085;SDS011;4715;51.660;7.082;2022-12-07T14:03:41;2.60;;;2.30;;
5085;SDS011;4715;51.660;7.082;2022-12-07T14:06:10;3.00;;;2.80;;
5085;SDS011;4715;51.660;7.082;2022-12-07T14:08:38;5.50;;;2.53;;
5085;SDS011;4715;51.660;7.082;2022-12-07T14:11:00;3.53;;;3.23;;
5085;SDS011;4715;51.660;7.082;2022-12-07T14:13:26;5.40;;;2.93;;
5085;SDS011;4715;51.660;7.082;2022-12-07T14:15:51;4.87;;;2.80;;
5085;SDS011;4715;51.660;7.082;2022-12-07T14:18:25;4.80;;;2.90;;
5085;SDS011;4715;51.660;7.082;2022-12-07T14:20:48;4.43;;;2.20;;
5085;SDS011;4715;51.660;7.082;2022-12-07T14:23:21;3.67;;;2.57;;
5085;SDS011;4715;51.660;7.082;2022-12-07T14:25:45;3.57;;;3.30;;
5085;SDS011;4715;51.660;7.082;2022-12-07T14:28:09;3.40;;;3.00;;
5085;SDS011;4715;51.660;7.082;2022-12-07T14:30:47;3.93;;;3.53;;
5085;SDS011;4715;51.660;7.082;2022-12-07T14:33:13;6.20;;;2.57;;
5085;SDS011;4715;51.660;7.082;2022-12-07T14:35:38;3.87;;;2.67;;
5085;SDS011;4715;51.660;7.082;2022-12-07T14:38:00;3.57;;;2.27;;
5085;SDS011;4715;51.660;7.082;2022-12-07T14:40:23;3.33;;;2.30;;
5085;SDS011;4715;51.660;7.082;2022-12-07T14:42:48;7.00;;;2.50;;
5085;SDS011;4715;51.660;7.082;2022-12-07T14:45:16;4.43;;;2.80;;
5085;SDS011;4715;51.660;7.082;2022-12-07T14:47:39;3.60;;;2.63;;
5085;SDS011;4715;51.660;7.082;2022-12-07T14:50:01;6.53;;;3.00;;
5085;SDS011;4715;51.660;7.082;2022-12-07T14:52:26;6.37;;;3.10;;
5085;SDS011;4715;51.660;7.082;2022-12-07T14:54:50;3.73;;;3.33;;
5085;SDS011;4715;51.660;7.082;2022-12-07T14:57:12;3.10;;;2.83;;
5085;SDS011;4715;51.660;7.082;2022-12-07T14:59:34;5.80;;;3.13;;
5085;SDS011;4715;51.660;7.082;2022-12-07T15:01:56;3.67;;;3.37;;
5085;SDS011;4715;51.660;7.082;2022-12-07T15:04:18;6.30;;;4.30;;
5085;SDS011;4715;51.660;7.082;2022-12-07T15:06:40;4.13;;;3.30;;
5085;SDS011;4715;51.660;7.082;2022-12-07T15:09:05;4.10;;;3.37;;
5085;SDS011;4715;51.660;7.082;2022-12-07T15:11:27;5.73;;;4.03;;
5085;SDS011;4715;51.660;7.082;2022-12-07T15:13:54;6.60;;;3.97;;
5085;SDS011;4715;51.660;7.082;2022-12-07T15:16:32;8.50;;;4.13;;
5085;SDS011;4715;51.660;7.082;2022-12-07T15:18:55;5.83;;;4.03;;
5085;SDS011;4715;51.660;7.082;2022-12-07T15:21:17;6.13;;;4.20;;
5085;SDS011;4715;51.660;7.082;2022-12-07T15:23:39;8.63;;;5.37;;